Time,TemperatureF,DewpointF,PressureIn,WindDirection,WindDirectionDegrees,WindSpeedMPH,WindSpeedGustMPH,Humidity,HourlyPrecipIn,Conditions,Clouds,dailyrainin,SoftwareType,DateUTC
2013-06-14 00:01:00,55.2,46.7,29.12,NNE,31,7.2,7.2,73,0.04,,SKC,0.00,VWS V14.01,2013-06-14 04:01:00,
2013-06-14 00:06:00,55.0,46.5,29.12,NNE,32,5.6,5.6,73,0.04,,SKC,0.00,VWS V14.01,2013-06-14 04:06:00,
2013-06-14 00:11:00,55.0,46.5,29.12,NE,36,6.4,6.4,73,0.08,,SKC,0.04,VWS V14.01,2013-06-14 04:11:00,
2013-06-14 00:16:00,55.0,46.9,29.12,NNE,15,7.2,7.2,74,0.08,,SKC,0.04,VWS V14.01,2013-06-14 04:16:00,
2013-06-14 00:21:00,54.9,46.7,29.12,ENE,69,0.0,0.0,74,0.08,,SKC,0.04,VWS V14.01,2013-06-14 04:21:00,
2013-06-14 00:26:00,54.9,46.7,29.12,East,83,5.6,5.6,74,0.12,,SKC,0.08,VWS V14.01,2013-06-14 04:26:00,
2013-06-14 00:31:00,54.7,46.6,29.12,NNW,329,6.4,6.4,74,0.12,,SKC,0.08,VWS V14.01,2013-06-14 04:31:00,
2013-06-14 00:36:00,54.7,46.6,29.12,WNW,290,5.6,5.6,74,0.16,,SKC,0.12,VWS V14.01,2013-06-14 04:36:00,
2013-06-14 00:41:00,54.7,46.6,29.12,WNW,298,6.4,6.4,74,0.16,,SKC,0.12,VWS V14.01,2013-06-14 04:41:00,
2013-06-14 00:46:00,54.5,46.4,29.12,NNW,339,0.0,3.6,74,0.16,,SKC,0.12,VWS V14.01,2013-06-14 04:46:00,
2013-06-14 00:51:00,54.5,46.4,29.12,North,353,5.6,5.6,74,0.16,,SKC,0.12,VWS V14.01,2013-06-14 04:51:00,
2013-06-14 00:56:00,54.5,46.4,29.15,ENE,74,12.1,12.1,74,0.20,,SKC,0.16,VWS V14.01,2013-06-14 04:56:00,
2013-06-14 01:01:00,54.5,46.0,29.15,NW,315,7.2,7.2,73,0.16,,SKC,0.16,VWS V14.01,2013-06-14 05:01:00,
2013-06-14 01:06:00,54.3,45.9,29.15,NW,324,7.2,7.2,73,0.16,,SKC,0.16,VWS V14.01,2013-06-14 05:06:00,
2013-06-14 01:11:00,54.3,45.9,29.15,NE,48,5.6,5.6,73,0.20,,SKC,0.20,VWS V14.01,2013-06-14 05:11:00,
2013-06-14 01:16:00,54.3,45.9,29.15,NW,306,7.2,7.2,73,0.16,,SKC,0.20,VWS V14.01,2013-06-14 05:16:00,
2013-06-14 01:21:00,54.3,46.2,29.15,East,85,0.0,0.0,74,0.16,,SKC,0.20,VWS V14.01,2013-06-14 05:21:00,
2013-06-14 01:26:00,54.3,46.2,29.15,East,85,0.0,3.6,74,0.12,,SKC,0.20,VWS V14.01,2013-06-14 05:26:00,
2013-06-14 01:31:00,54.3,46.2,29.15,NE,37,0.0,2.7,74,0.12,,SKC,0.20,VWS V14.01,2013-06-14 05:31:00,
2013-06-14 01:36:00,54.3,46.6,29.15,East,83,0.0,0.0,75,0.12,,SKC,0.24,VWS V14.01,2013-06-14 05:36:00,
2013-06-14 01:41:00,54.1,46.4,29.15,North,357,0.0,3.1,75,0.12,,SKC,0.24,VWS V14.01,2013-06-14 05:41:00,
2013-06-14 01:46:00,54.1,46.4,29.15,NE,37,0.0,3.1,75,0.12,,SKC,0.24,VWS V14.01,2013-06-14 05:46:00,
2013-06-14 01:51:00,54.1,46.4,29.15,ENE,58,8.9,8.9,75,0.12,,SKC,0.24,VWS V14.01,2013-06-14 05:51:00,
2013-06-14 01:56:00,54.1,46.4,29.15,ENE,78,0.0,0.0,75,0.12,,SKC,0.24,VWS V14.01,2013-06-14 05:56:00,
2013-06-14 02:01:00,54.1,46.4,29.15,NNE,30,0.0,0.0,75,0.08,,SKC,0.24,VWS V14.01,2013-06-14 06:01:00,
2013-06-14 02:06:00,54.1,46.8,29.15,NNE,23,4.0,5.8,76,0.08,,SKC,0.24,VWS V14.01,2013-06-14 06:06:00,
2013-06-14 02:11:00,54.1,46.4,29.15,ENE,58,0.0,0.0,75,0.08,,SKC,0.24,VWS V14.01,2013-06-14 06:11:00,
2013-06-14 02:16:00,54.1,46.4,29.15,NE,56,0.0,4.0,75,0.08,,SKC,0.28,VWS V14.01,2013-06-14 06:16:00,
2013-06-14 02:21:00,54.1,46.4,29.15,NNE,30,7.2,7.2,75,0.08,,SKC,0.28,VWS V14.01,2013-06-14 06:21:00,
2013-06-14 02:25:00,54.1,46.4,29.15,ENE,59,5.6,5.8,75,0.08,,SKC,0.28,VWS V14.01,2013-06-14 06:25:00,
2013-06-14 02:30:00,54.1,46.4,29.15,NW,308,7.2,7.2,75,0.08,,SKC,0.28,VWS V14.01,2013-06-14 06:30:00,
2013-06-14 02:35:00,54.1,46.4,29.15,NE,35,0.0,3.6,75,0.04,,SKC,0.28,VWS V14.01,2013-06-14 06:35:00,
2013-06-14 02:40:00,54.1,46.8,29.15,NNE,28,4.8,4.8,76,0.04,,SKC,0.28,VWS V14.01,2013-06-14 06:40:00,
2013-06-14 02:45:00,54.1,46.8,29.15,NW,313,5.6,5.6,76,0.04,,SKC,0.28,VWS V14.01,2013-06-14 06:45:00,
2013-06-14 02:50:00,54.1,46.8,29.15,NNW,344,5.6,5.6,76,0.04,,SKC,0.28,VWS V14.01,2013-06-14 06:50:00,
2013-06-14 02:55:00,54.1,46.4,29.18,NW,326,0.0,0.0,75,0.08,,SKC,0.31,VWS V14.01,2013-06-14 06:55:00,
2013-06-14 03:00:00,54.0,46.2,29.18,SE,130,4.8,4.8,75,0.08,,SKC,0.31,VWS V14.01,2013-06-14 07:00:00,
2013-06-14 03:05:00,54.0,46.2,29.18,WNW,286,6.4,6.4,75,0.08,,SKC,0.31,VWS V14.01,2013-06-14 07:05:00,
2013-06-14 03:10:00,54.0,45.9,29.18,NW,323,4.8,4.8,74,0.08,,SKC,0.31,VWS V14.01,2013-06-14 07:10:00,
2013-06-14 03:15:00,53.6,45.2,29.18,ENE,58,7.2,7.2,73,0.12,,SKC,0.39,VWS V14.01,2013-06-14 07:15:00,
2013-06-14 03:20:00,53.4,44.6,29.18,ENE,65,22.1,22.1,72,0.12,,SKC,0.39,VWS V14.01,2013-06-14 07:20:00,
2013-06-14 03:25:00,53.4,44.6,29.18,NNE,15,0.0,4.0,72,0.12,,SKC,0.39,VWS V14.01,2013-06-14 07:25:00,
2013-06-14 03:30:00,53.2,44.5,29.18,ENE,70,5.6,5.6,72,0.12,,SKC,0.39,VWS V14.01,2013-06-14 07:30:00,
2013-06-14 03:35:00,53.1,44.7,29.18,NE,46,0.0,0.0,73,0.16,,SKC,0.43,VWS V14.01,2013-06-14 07:35:00,
2013-06-14 03:40:00,53.1,44.7,29.18,East,99,0.0,0.0,73,0.16,,SKC,0.43,VWS V14.01,2013-06-14 07:40:00,
2013-06-14 03:45:00,53.1,44.7,29.18,East,94,0.0,0.0,73,0.16,,SKC,0.43,VWS V14.01,2013-06-14 07:45:00,
2013-06-14 03:50:00,53.1,44.7,29.18,NE,45,0.0,0.0,73,0.16,,SKC,0.43,VWS V14.01,2013-06-14 07:50:00,
2013-06-14 03:55:00,53.1,45.0,29.18,NW,309,5.6,5.6,74,0.12,,SKC,0.43,VWS V14.01,2013-06-14 07:55:00,
2013-06-14 04:00:00,53.1,45.0,29.18,SE,125,6.4,6.4,74,0.12,,SKC,0.43,VWS V14.01,2013-06-14 08:00:00,
2013-06-14 04:05:00,53.1,45.0,29.18,NNE,29,0.0,0.0,74,0.12,,SKC,0.43,VWS V14.01,2013-06-14 08:05:00,
2013-06-14 04:10:00,53.1,45.4,29.21,NNE,17,4.8,4.9,75,0.12,,SKC,0.43,VWS V14.01,2013-06-14 08:10:00,
2013-06-14 04:15:00,52.9,45.2,29.21,NNE,30,5.6,5.6,75,0.12,,SKC,0.43,VWS V14.01,2013-06-14 08:15:00,
2013-06-14 04:20:00,52.9,45.2,29.21,ENE,58,5.6,5.6,75,0.04,,SKC,0.43,VWS V14.01,2013-06-14 08:20:00,
2013-06-14 04:25:00,52.9,45.2,29.21,ESE,111,4.8,4.8,75,0.04,,SKC,0.43,VWS V14.01,2013-06-14 08:25:00,
2013-06-14 04:30:00,52.9,45.2,29.21,NE,50,5.6,5.6,75,0.04,,SKC,0.43,VWS V14.01,2013-06-14 08:30:00,
2013-06-14 04:35:00,52.9,45.2,29.21,NE,50,5.6,5.6,75,0.00,,SKC,0.43,VWS V14.01,2013-06-14 08:35:00,
2013-06-14 04:40:00,52.9,45.2,29.21,East,100,4.8,4.8,75,0.00,,SKC,0.43,VWS V14.01,2013-06-14 08:40:00,
2013-06-14 04:45:00,52.9,44.8,29.21,ENE,74,6.4,6.4,74,0.04,,SKC,0.47,VWS V14.01,2013-06-14 08:45:00,
2013-06-14 04:50:00,52.9,44.8,29.21,NW,306,0.0,2.7,74,0.04,,SKC,0.47,VWS V14.01,2013-06-14 08:50:00,
2013-06-14 04:55:00,52.9,44.8,29.21,NE,35,7.2,7.2,74,0.04,,SKC,0.47,VWS V14.01,2013-06-14 08:55:00,
2013-06-14 05:00:00,52.9,44.8,29.21,NNE,19,5.6,5.6,74,0.04,,SKC,0.47,VWS V14.01,2013-06-14 09:00:00,
2013-06-14 05:05:00,52.9,44.8,29.21,SSE,154,6.4,6.4,74,0.04,,SKC,0.47,VWS V14.01,2013-06-14 09:05:00,
2013-06-14 05:10:00,52.9,44.5,29.21,East,99,0.0,3.6,73,0.04,,SKC,0.47,VWS V14.01,2013-06-14 09:10:00,
2013-06-14 05:15:00,52.9,44.5,29.21,NE,42,5.6,5.6,73,0.04,,SKC,0.47,VWS V14.01,2013-06-14 09:15:00,
2013-06-14 05:20:00,52.9,44.1,29.21,NE,56,4.8,5.4,72,0.04,,SKC,0.47,VWS V14.01,2013-06-14 09:20:00,
2013-06-14 05:25:00,52.9,43.4,29.21,North,353,4.0,4.9,70,0.04,,SKC,0.47,VWS V14.01,2013-06-14 09:25:00,
2013-06-14 05:30:00,52.9,43.4,29.21,NNE,16,0.0,0.0,70,0.04,,SKC,0.47,VWS V14.01,2013-06-14 09:30:00,
2013-06-14 05:35:00,52.9,42.6,29.21,NE,37,4.8,4.8,68,0.04,,SKC,0.47,VWS V14.01,2013-06-14 09:35:00,
2013-06-14 05:40:00,52.9,41.8,29.23,NE,56,4.8,4.8,66,0.04,,SKC,0.47,VWS V14.01,2013-06-14 09:40:00,
2013-06-14 05:45:00,53.1,42.0,29.23,WNW,285,6.4,6.4,66,0.00,,SKC,0.47,VWS V14.01,2013-06-14 09:45:00,
2013-06-14 05:50:00,52.9,41.8,29.23,East,80,5.6,5.6,66,0.00,,SKC,0.47,VWS V14.01,2013-06-14 09:50:00,
2013-06-14 05:55:00,52.9,41.0,29.23,ENE,64,4.0,4.0,64,0.00,,SKC,0.47,VWS V14.01,2013-06-14 09:55:00,
2013-06-14 06:00:00,53.1,41.2,29.23,ESE,116,0.0,0.0,64,0.00,,SKC,0.47,VWS V14.01,2013-06-14 10:00:00,
2013-06-14 06:05:00,53.1,40.8,29.23,ESE,105,0.0,0.0,63,0.00,,SKC,0.47,VWS V14.01,2013-06-14 10:05:00,
2013-06-14 06:10:00,53.1,40.8,29.23,NNE,22,4.0,4.0,63,0.00,,SKC,0.47,VWS V14.01,2013-06-14 10:10:00,
2013-06-14 06:15:00,53.1,40.8,29.23,SSE,154,4.8,4.8,63,0.00,,SKC,0.47,VWS V14.01,2013-06-14 10:15:00,
2013-06-14 06:20:00,53.2,41.0,29.23,NE,34,7.2,7.2,63,0.00,,SKC,0.47,VWS V14.01,2013-06-14 10:20:00,
2013-06-14 06:25:00,53.2,41.0,29.23,North,0,4.8,4.8,63,0.00,,SKC,0.47,VWS V14.01,2013-06-14 10:25:00,
2013-06-14 06:30:00,53.2,40.6,29.23,ENE,62,0.0,2.7,62,0.00,,SKC,0.47,VWS V14.01,2013-06-14 10:30:00,
2013-06-14 06:35:00,53.2,40.2,29.23,WNW,296,6.4,6.4,61,0.00,,SKC,0.47,VWS V14.01,2013-06-14 10:35:00,
2013-06-14 06:40:00,53.4,39.5,29.26,SE,146,4.8,4.8,59,0.00,,SKC,0.47,VWS V14.01,2013-06-14 10:40:00,
2013-06-14 06:45:00,53.4,38.6,29.26,WNW,297,6.4,6.4,57,0.00,,SKC,0.47,VWS V14.01,2013-06-14 10:45:00,
2013-06-14 06:50:00,53.6,38.8,29.26,NE,45,4.0,4.0,57,0.00,,SKC,0.47,VWS V14.01,2013-06-14 10:50:00,
2013-06-14 06:55:00,53.8,38.5,29.26,North,1,10.5,10.5,56,0.00,,SKC,0.47,VWS V14.01,2013-06-14 10:55:00,
2013-06-14 07:00:00,53.8,38.0,29.26,ENE,58,0.0,3.6,55,0.00,,SKC,0.47,VWS V14.01,2013-06-14 11:00:00,
2013-06-14 07:05:00,54.0,37.7,29.26,NNW,337,6.4,6.4,54,0.00,,SKC,0.47,VWS V14.01,2013-06-14 11:05:00,
2013-06-14 07:10:00,54.0,37.2,29.26,ENE,72,7.2,7.2,53,0.00,,SKC,0.47,VWS V14.01,2013-06-14 11:10:00,
2013-06-14 07:15:00,54.0,37.2,29.26,NNE,31,0.0,4.0,53,0.00,,SKC,0.47,VWS V14.01,2013-06-14 11:15:00,
2013-06-14 07:20:00,54.1,36.9,29.26,East,91,0.0,5.4,52,0.00,,SKC,0.47,VWS V14.01,2013-06-14 11:20:00,
2013-06-14 07:25:00,54.3,37.6,29.26,SW,225,4.8,4.8,53,0.00,,SKC,0.47,VWS V14.01,2013-06-14 11:25:00,
2013-06-14 07:30:00,54.5,38.2,29.26,NE,55,4.0,4.0,54,0.00,,SKC,0.47,VWS V14.01,2013-06-14 11:30:00,
2013-06-14 07:35:00,54.5,38.2,29.26,North,357,4.0,4.0,54,0.00,,SKC,0.47,VWS V14.01,2013-06-14 11:35:00,
2013-06-14 07:40:00,54.7,38.4,29.26,ESE,113,0.0,3.1,54,0.00,,SKC,0.47,VWS V14.01,2013-06-14 11:40:00,
2013-06-14 07:45:00,54.9,38.1,29.26,NE,48,0.0,0.0,53,0.00,,SKC,0.47,VWS V14.01,2013-06-14 11:45:00,
2013-06-14 07:50:00,54.9,37.6,29.26,ESE,105,0.0,0.0,52,0.00,,SKC,0.47,VWS V14.01,2013-06-14 11:50:00,
2013-06-14 07:55:00,54.9,37.6,29.26,East,92,7.2,7.2,52,0.00,,SKC,0.47,VWS V14.01,2013-06-14 11:55:00,
2013-06-14 08:00:00,55.0,36.8,29.26,ESE,109,5.6,5.6,50,0.00,,SKC,0.47,VWS V14.01,2013-06-14 12:00:00,
2013-06-14 08:05:00,55.2,36.4,29.26,ESE,116,0.0,4.0,49,0.00,,SKC,0.47,VWS V14.01,2013-06-14 12:05:00,
2013-06-14 08:10:00,55.2,36.4,29.26,NE,39,7.2,7.2,49,0.00,,SKC,0.47,VWS V14.01,2013-06-14 12:10:00,
2013-06-14 08:15:00,55.4,35.5,29.26,SE,133,4.0,5.4,47,0.00,,SKC,0.47,VWS V14.01,2013-06-14 12:15:00,
2013-06-14 08:20:00,55.8,36.4,29.26,ENE,69,0.0,0.0,48,0.00,,SKC,0.47,VWS V14.01,2013-06-14 12:20:00,
2013-06-14 08:25:00,55.9,36.5,29.26,NNE,18,4.8,4.8,48,0.00,,SKC,0.47,VWS V14.01,2013-06-14 12:25:00,
2013-06-14 08:30:00,55.9,36.0,29.26,NE,45,5.6,5.6,47,0.00,,SKC,0.47,VWS V14.01,2013-06-14 12:30:00,
2013-06-14 08:35:00,56.1,35.6,29.26,WNW,295,6.4,6.4,46,0.00,,SKC,0.47,VWS V14.01,2013-06-14 12:35:00,
2013-06-14 08:40:00,56.3,36.3,29.26,ESE,111,4.0,4.0,47,0.00,,SKC,0.47,VWS V14.01,2013-06-14 12:40:00,
2013-06-14 08:45:00,56.7,37.2,29.29,SSE,151,6.4,6.4,48,0.00,,SKC,0.47,VWS V14.01,2013-06-14 12:45:00,
2013-06-14 08:50:00,56.7,36.7,29.29,NNW,342,0.0,0.0,47,0.00,,SKC,0.47,VWS V14.01,2013-06-14 12:50:00,
2013-06-14 08:55:00,56.7,36.7,29.29,NNE,21,4.0,4.0,47,0.00,,SKC,0.47,VWS V14.01,2013-06-14 12:55:00,
2013-06-14 09:00:00,56.7,37.2,29.29,East,94,4.8,4.8,48,0.00,,SKC,0.47,VWS V14.01,2013-06-14 13:00:00,
2013-06-14 09:05:00,56.8,37.4,29.29,East,85,0.0,0.0,48,0.00,,SKC,0.47,VWS V14.01,2013-06-14 13:05:00,
2013-06-14 09:10:00,56.8,37.9,29.29,East,85,0.0,0.0,49,0.00,,SKC,0.47,VWS V14.01,2013-06-14 13:10:00,
2013-06-14 09:14:00,56.8,36.8,29.29,ENE,62,4.0,4.0,47,0.00,,SKC,0.47,VWS V14.01,2013-06-14 13:14:00,
2013-06-14 09:19:00,56.8,36.3,29.29,East,83,5.6,5.8,46,0.00,,SKC,0.47,VWS V14.01,2013-06-14 13:19:00,
2013-06-14 09:24:00,56.8,36.3,29.29,East,98,5.6,5.6,46,0.00,,SKC,0.47,VWS V14.01,2013-06-14 13:24:00,
2013-06-14 09:29:00,56.8,37.4,29.32,East,79,6.4,6.4,48,0.00,,SKC,0.47,VWS V14.01,2013-06-14 13:29:00,
2013-06-14 09:34:00,56.8,36.3,29.32,North,11,0.0,2.7,46,0.00,,SKC,0.47,VWS V14.01,2013-06-14 13:34:00,
2013-06-14 09:39:00,56.8,36.8,29.32,SE,125,0.0,2.7,47,0.00,,SKC,0.47,VWS V14.01,2013-06-14 13:39:00,
2013-06-14 09:44:00,56.8,36.3,29.32,ENE,74,0.0,3.6,46,0.00,,SKC,0.47,VWS V14.01,2013-06-14 13:44:00,
2013-06-14 09:49:00,56.8,36.3,29.32,East,82,0.0,0.0,46,0.00,,SKC,0.47,VWS V14.01,2013-06-14 13:49:00,
2013-06-14 09:54:00,56.8,35.7,29.32,East,80,4.8,4.8,45,0.00,,SKC,0.47,VWS V14.01,2013-06-14 13:54:00,
2013-06-14 09:59:00,57.0,36.5,29.32,NE,44,0.0,0.0,46,0.00,,SKC,0.47,VWS V14.01,2013-06-14 13:59:00,
2013-06-14 10:04:00,57.2,36.6,29.32,ESE,110,0.0,0.0,46,0.00,,SKC,0.47,VWS V14.01,2013-06-14 14:04:00,
2013-06-14 10:09:00,57.6,36.4,29.32,SSW,202,0.0,2.2,45,0.00,,SKC,0.47,VWS V14.01,2013-06-14 14:09:00,
2013-06-14 10:14:00,57.7,36.6,29.32,East,86,0.0,0.0,45,0.00,,SKC,0.47,VWS V14.01,2013-06-14 14:14:00,
2013-06-14 10:19:00,57.9,36.7,29.32,East,86,0.0,0.0,45,0.00,,SKC,0.47,VWS V14.01,2013-06-14 14:19:00,
2013-06-14 10:24:00,58.1,36.9,29.32,East,92,0.0,0.0,45,0.00,,SKC,0.47,VWS V14.01,2013-06-14 14:24:00,
2013-06-14 10:29:00,58.3,37.0,29.32,East,92,0.0,0.0,45,0.00,,SKC,0.00,VWS V14.01,2013-06-14 14:29:00,
2013-06-14 10:34:00,58.5,36.7,29.32,East,96,0.0,0.0,44,0.00,,SKC,0.47,VWS V14.01,2013-06-14 14:34:00,
2013-06-14 10:39:00,58.8,35.2,29.32,East,97,4.0,4.0,41,0.00,,SKC,0.47,VWS V14.01,2013-06-14 14:39:00,
2013-06-14 10:44:00,59.2,34.3,29.32,East,88,0.0,3.6,39,0.00,,SKC,0.47,VWS V14.01,2013-06-14 14:44:00,
2013-06-14 10:49:00,59.5,33.9,29.32,ESE,108,0.0,0.0,38,0.00,,SKC,0.47,VWS V14.01,2013-06-14 14:49:00,
2013-06-14 10:54:00,59.9,33.6,29.32,NNW,328,5.6,5.6,37,0.00,,SKC,0.47,VWS V14.01,2013-06-14 14:54:00,
2013-06-14 10:59:00,60.4,34.1,29.35,East,97,0.0,0.0,37,0.00,,SKC,0.47,VWS V14.01,2013-06-14 14:59:00,
2013-06-14 11:04:00,61.0,34.5,29.35,East,97,0.0,0.0,37,0.00,,SKC,0.47,VWS V14.01,2013-06-14 15:04:00,
2013-06-14 11:09:00,61.3,34.9,29.35,East,97,0.0,0.0,37,0.00,,SKC,0.47,VWS V14.01,2013-06-14 15:09:00,
2013-06-14 11:14:00,61.9,34.7,29.35,SSE,162,0.0,0.0,36,0.00,,SKC,0.47,VWS V14.01,2013-06-14 15:14:00,
2013-06-14 11:19:00,62.4,34.4,29.35,WNW,297,5.6,5.6,35,0.00,,SKC,0.47,VWS V14.01,2013-06-14 15:19:00,
2013-06-14 11:24:00,62.8,34.0,29.35,East,96,4.8,4.8,34,0.00,,SKC,0.47,VWS V14.01,2013-06-14 15:24:00,
2013-06-14 11:29:00,63.1,33.6,29.35,ESE,112,0.0,0.0,33,0.00,,SKC,0.47,VWS V14.01,2013-06-14 15:29:00,
2013-06-14 11:34:00,63.5,32.3,29.35,ESE,114,0.0,0.0,31,0.00,,SKC,0.47,VWS V14.01,2013-06-14 15:34:00,
2013-06-14 11:39:00,64.2,33.0,29.35,SE,130,0.0,0.0,31,0.00,,SKC,0.47,VWS V14.01,2013-06-14 15:39:00,
2013-06-14 11:44:00,64.8,30.9,29.35,NNE,22,4.0,4.0,28,0.00,,SKC,0.47,VWS V14.01,2013-06-14 15:44:00,
2013-06-14 11:49:00,65.1,30.3,29.35,NW,320,0.0,2.2,27,0.00,,SKC,0.47,VWS V14.01,2013-06-14 15:49:00,
2013-06-14 11:54:00,65.3,32.3,29.35,East,91,4.0,4.0,29,0.00,,SKC,0.47,VWS V14.01,2013-06-14 15:54:00,
2013-06-14 11:59:00,65.8,32.7,29.35,SSE,157,6.4,6.4,29,0.00,,SKC,0.47,VWS V14.01,2013-06-14 15:59:00,
2013-06-14 12:04:00,66.6,30.6,29.35,South,190,4.8,4.8,26,0.00,,SKC,0.47,VWS V14.01,2013-06-14 16:04:00,
2013-06-14 12:09:00,66.2,30.3,29.35,East,83,0.0,0.0,26,0.00,,SKC,0.47,VWS V14.01,2013-06-14 16:09:00,
2013-06-14 12:14:00,65.8,31.9,29.35,ESE,115,0.0,0.0,28,0.00,,SKC,0.47,VWS V14.01,2013-06-14 16:14:00,
2013-06-14 12:19:00,66.0,32.0,29.35,NNW,344,0.0,0.0,28,0.00,,SKC,0.47,VWS V14.01,2013-06-14 16:19:00,
2013-06-14 12:24:00,66.4,31.4,29.35,NNE,30,0.0,0.0,27,0.00,,SKC,0.47,VWS V14.01,2013-06-14 16:24:00,
2013-06-14 12:29:00,66.9,32.8,29.32,ESE,121,4.0,4.9,28,0.00,,SKC,0.47,VWS V14.01,2013-06-14 16:29:00,
2013-06-14 12:34:00,67.3,31.2,29.32,ENE,66,0.0,0.0,26,0.00,,SKC,0.47,VWS V14.01,2013-06-14 16:34:00,
2013-06-14 12:39:00,67.8,33.5,29.32,East,88,0.0,2.7,28,0.00,,SKC,0.47,VWS V14.01,2013-06-14 16:39:00,
2013-06-14 12:44:00,68.0,31.9,29.32,WNW,292,4.0,4.0,26,0.00,,SKC,0.47,VWS V14.01,2013-06-14 16:44:00,
2013-06-14 12:49:00,67.8,32.7,29.32,SSE,158,4.8,4.8,27,0.00,,SKC,0.47,VWS V14.01,2013-06-14 16:49:00,
2013-06-14 12:54:00,68.2,35.6,29.32,ENE,70,4.0,4.0,30,0.00,,SKC,0.47,VWS V14.01,2013-06-14 16:54:00,
2013-06-14 12:59:00,68.5,34.2,29.32,WSW,246,0.0,0.0,28,0.00,,SKC,0.47,VWS V14.01,2013-06-14 16:59:00,
2013-06-14 13:04:00,69.3,33.9,29.32,ENE,76,0.0,2.7,27,0.00,,SKC,0.47,VWS V14.01,2013-06-14 17:04:00,
2013-06-14 13:09:00,69.4,32.1,29.32,West,267,0.0,0.0,25,0.00,,SKC,0.47,VWS V14.01,2013-06-14 17:09:00,
2013-06-14 13:14:00,70.0,33.5,29.32,West,267,0.0,0.0,26,0.00,,SKC,0.47,VWS V14.01,2013-06-14 17:14:00,
2013-06-14 13:19:00,69.8,34.3,29.32,ENE,77,0.0,0.0,27,0.00,,SKC,0.47,VWS V14.01,2013-06-14 17:19:00,
2013-06-14 13:24:00,69.6,36.0,29.32,ENE,77,0.0,0.0,29,0.00,,SKC,0.47,VWS V14.01,2013-06-14 17:24:00,
2013-06-14 13:29:00,69.8,36.1,29.32,SW,230,0.0,2.7,29,0.00,,SKC,0.47,VWS V14.01,2013-06-14 17:29:00,
2013-06-14 13:34:00,69.8,36.1,29.32,SW,230,0.0,0.0,29,0.00,,SKC,0.47,VWS V14.01,2013-06-14 17:34:00,
2013-06-14 13:39:00,69.8,34.3,29.32,South,174,0.0,0.0,27,0.00,,SKC,0.47,VWS V14.01,2013-06-14 17:39:00,
2013-06-14 13:44:00,70.0,34.5,29.32,WNW,303,0.0,0.0,27,0.00,,SKC,0.47,VWS V14.01,2013-06-14 17:44:00,
2013-06-14 13:49:00,70.2,33.7,29.32,NNW,331,4.0,4.0,26,0.00,,SKC,0.47,VWS V14.01,2013-06-14 17:49:00,
2013-06-14 13:54:00,70.2,33.7,29.32,South,187,0.0,0.0,26,0.00,,SKC,0.47,VWS V14.01,2013-06-14 17:54:00,
2013-06-14 13:59:00,70.7,33.2,29.32,NNE,15,6.4,6.4,25,0.00,,SKC,0.47,VWS V14.01,2013-06-14 17:59:00,
2013-06-14 14:04:00,71.6,34.0,29.32,East,91,10.5,10.5,25,0.00,,SKC,0.47,VWS V14.01,2013-06-14 18:04:00,
2013-06-14 14:09:00,71.8,33.1,29.32,NE,43,4.8,4.8,24,0.00,,SKC,0.47,VWS V14.01,2013-06-14 18:09:00,
2013-06-14 14:14:00,72.3,34.6,29.32,ENE,77,0.0,0.0,25,0.00,,SKC,0.47,VWS V14.01,2013-06-14 18:14:00,
2013-06-14 14:19:00,72.5,34.7,29.32,NW,305,5.6,5.6,25,0.00,,SKC,0.47,VWS V14.01,2013-06-14 18:19:00,
2013-06-14 14:24:00,72.0,33.2,29.32,ESE,109,0.0,0.0,24,0.00,,SKC,0.47,VWS V14.01,2013-06-14 18:24:00,
2013-06-14 14:29:00,71.8,32.0,29.32,East,99,0.0,0.0,23,0.00,,SKC,0.47,VWS V14.01,2013-06-14 18:29:00,
2013-06-14 14:34:00,71.6,32.9,29.32,ENE,58,0.0,3.6,24,0.00,,SKC,0.47,VWS V14.01,2013-06-14 18:34:00,
2013-06-14 14:39:00,71.4,35.7,29.32,ENE,59,0.0,0.0,27,0.00,,SKC,0.47,VWS V14.01,2013-06-14 18:39:00,
2013-06-14 14:44:00,71.4,33.8,29.32,NE,37,0.0,0.0,25,0.00,,SKC,0.47,VWS V14.01,2013-06-14 18:44:00,
2013-06-14 14:49:00,72.1,34.4,29.32,NE,48,4.8,4.8,25,0.00,,SKC,0.47,VWS V14.01,2013-06-14 18:49:00,
2013-06-14 14:54:00,72.3,33.5,29.32,East,85,0.0,0.0,24,0.00,,SKC,0.47,VWS V14.01,2013-06-14 18:54:00,
2013-06-14 14:59:00,72.0,33.2,29.32,ESE,108,0.0,3.6,24,0.00,,SKC,0.47,VWS V14.01,2013-06-14 18:59:00,
2013-06-14 15:04:00,71.4,32.8,29.32,NNE,12,0.0,0.0,24,0.00,,SKC,0.47,VWS V14.01,2013-06-14 19:04:00,
2013-06-14 15:09:00,71.4,32.8,29.32,East,87,0.0,0.0,24,0.00,,SKC,0.47,VWS V14.01,2013-06-14 19:09:00,
2013-06-14 15:14:00,71.6,31.9,29.32,NE,44,6.4,6.4,23,0.00,,SKC,0.47,VWS V14.01,2013-06-14 19:14:00,
2013-06-14 15:19:00,71.6,32.9,29.32,NE,44,0.0,0.0,24,0.00,,SKC,0.47,VWS V14.01,2013-06-14 19:19:00,
2013-06-14 15:24:00,71.1,33.5,29.32,NNE,32,0.0,2.2,25,0.00,,SKC,0.47,VWS V14.01,2013-06-14 19:24:00,
2013-06-14 15:29:00,70.7,34.2,29.32,NNE,32,0.0,0.0,26,0.00,,SKC,0.47,VWS V14.01,2013-06-14 19:29:00,
2013-06-14 15:34:00,71.2,32.6,29.32,NE,55,4.0,4.0,24,0.00,,SKC,0.47,VWS V14.01,2013-06-14 19:34:00,
2013-06-14 15:39:00,71.6,31.9,29.32,NE,35,0.0,0.0,23,0.00,,SKC,0.47,VWS V14.01,2013-06-14 19:39:00,
2013-06-14 15:44:00,72.0,32.2,29.32,NE,35,0.0,0.0,23,0.00,,SKC,0.47,VWS V14.01,2013-06-14 19:44:00,
2013-06-14 15:49:00,71.8,33.1,29.32,NE,35,0.0,0.0,24,0.00,,SKC,0.47,VWS V14.01,2013-06-14 19:49:00,
2013-06-14 15:53:00,71.4,33.8,29.32,ENE,71,6.4,6.4,25,0.00,,SKC,0.47,VWS V14.01,2013-06-14 19:53:00,
2013-06-14 15:58:00,71.8,33.1,29.32,ENE,69,0.0,0.0,24,0.00,,SKC,0.47,VWS V14.01,2013-06-14 19:58:00,
2013-06-14 16:03:00,72.1,33.4,29.32,ENE,69,0.0,0.0,24,0.00,,SKC,0.47,VWS V14.01,2013-06-14 20:03:00,
2013-06-14 16:08:00,72.5,32.6,29.32,SSW,206,0.0,3.6,23,0.00,,SKC,0.47,VWS V14.01,2013-06-14 20:08:00,
2013-06-14 16:13:00,72.3,33.5,29.32,SSE,147,0.0,0.0,24,0.00,,SKC,0.47,VWS V14.01,2013-06-14 20:13:00,
2013-06-14 16:18:00,71.4,32.8,29.32,East,85,0.0,5.4,24,0.00,,SKC,0.47,VWS V14.01,2013-06-14 20:18:00,
2013-06-14 16:23:00,70.5,33.0,29.32,ENE,71,4.8,4.8,25,0.00,,SKC,0.47,VWS V14.01,2013-06-14 20:23:00,
2013-06-14 16:28:00,70.0,34.5,29.32,NE,54,0.0,2.7,27,0.00,,SKC,0.47,VWS V14.01,2013-06-14 20:28:00,
2013-06-14 16:33:00,69.3,35.7,29.32,North,8,7.2,7.2,29,0.00,,SKC,0.47,VWS V14.01,2013-06-14 20:33:00,
2013-06-14 16:38:00,68.9,37.8,29.32,East,83,6.4,6.4,32,0.00,,SKC,0.47,VWS V14.01,2013-06-14 20:38:00,
2013-06-14 16:43:00,68.5,37.5,29.32,SW,236,6.4,6.4,32,0.00,,SKC,0.47,VWS V14.01,2013-06-14 20:43:00,
2013-06-14 16:48:00,68.0,37.1,29.32,WNW,288,0.0,0.0,32,0.00,,SKC,0.47,VWS V14.01,2013-06-14 20:48:00,
2013-06-14 16:53:00,68.0,37.1,29.32,East,101,7.2,7.2,32,0.00,,SKC,0.47,VWS V14.01,2013-06-14 20:53:00,
2013-06-14 16:58:00,68.0,37.1,29.32,North,9,0.0,2.2,32,0.00,,SKC,0.47,VWS V14.01,2013-06-14 20:58:00,
2013-06-14 17:03:00,68.0,37.1,29.32,WNW,297,6.4,6.4,32,0.00,,SKC,0.47,VWS V14.01,2013-06-14 21:03:00,
2013-06-14 17:08:00,67.8,37.7,29.32,NNW,340,0.0,0.0,33,0.00,,SKC,0.47,VWS V14.01,2013-06-14 21:08:00,
2013-06-14 17:13:00,67.6,37.5,29.35,WNW,303,0.0,0.0,33,0.00,,SKC,0.47,VWS V14.01,2013-06-14 21:13:00,
2013-06-14 17:18:00,67.5,38.1,29.35,NNW,327,5.6,5.6,34,0.00,,SKC,0.47,VWS V14.01,2013-06-14 21:18:00,
2013-06-14 17:23:00,67.1,37.8,29.35,NW,317,0.0,0.0,34,0.00,,SKC,0.47,VWS V14.01,2013-06-14 21:23:00,
2013-06-14 17:28:00,66.9,38.4,29.35,NE,37,0.0,0.0,35,0.00,,SKC,0.47,VWS V14.01,2013-06-14 21:28:00,
2013-06-14 17:33:00,66.6,38.1,29.35,North,0,4.0,4.0,35,0.00,,SKC,0.47,VWS V14.01,2013-06-14 21:33:00,
2013-06-14 17:38:00,66.2,37.8,29.35,North,8,4.0,4.0,35,0.00,,SKC,0.47,VWS V14.01,2013-06-14 21:38:00,
2013-06-14 17:43:00,66.0,37.6,29.35,North,0,0.0,2.2,35,0.00,,SKC,0.47,VWS V14.01,2013-06-14 21:43:00,
2013-06-14 17:48:00,65.5,37.1,29.35,NW,313,4.8,4.8,35,0.00,,SKC,0.47,VWS V14.01,2013-06-14 21:48:00,
2013-06-14 17:53:00,65.1,38.2,29.35,ESE,111,0.0,0.0,37,0.00,,SKC,0.47,VWS V14.01,2013-06-14 21:53:00,
2013-06-14 17:58:00,64.8,37.9,29.35,ESE,112,0.0,0.0,37,0.00,,SKC,0.47,VWS V14.01,2013-06-14 21:58:00,
2013-06-14 18:03:00,64.6,38.4,29.35,NNW,344,0.0,0.0,38,0.00,,SKC,0.47,VWS V14.01,2013-06-14 22:03:00,
2013-06-14 18:08:00,64.4,37.6,29.35,NNW,329,0.0,2.2,37,0.00,,SKC,0.47,VWS V14.01,2013-06-14 22:08:00,
2013-06-14 18:13:00,64.2,37.4,29.35,ESE,117,0.0,0.0,37,0.00,,SKC,0.47,VWS V14.01,2013-06-14 22:13:00,
2013-06-14 18:18:00,64.4,36.9,29.35,ESE,116,0.0,0.0,36,0.00,,SKC,0.47,VWS V14.01,2013-06-14 22:18:00,
2013-06-14 18:23:00,64.4,36.2,29.35,SSE,149,5.6,5.6,35,0.00,,SKC,0.47,VWS V14.01,2013-06-14 22:23:00,
2013-06-14 18:28:00,64.6,35.6,29.35,East,80,0.0,2.2,34,0.00,,SKC,0.47,VWS V14.01,2013-06-14 22:28:00,
2013-06-14 18:33:00,64.8,35.8,29.35,NNW,332,0.0,0.0,34,0.00,,SKC,0.47,VWS V14.01,2013-06-14 22:33:00,
2013-06-14 18:38:00,65.1,36.1,29.35,East,98,0.0,0.0,34,0.00,,SKC,0.47,VWS V14.01,2013-06-14 22:38:00,
2013-06-14 18:43:00,65.1,36.1,29.35,ENE,59,0.0,0.0,34,0.00,,SKC,0.47,VWS V14.01,2013-06-14 22:43:00,
2013-06-14 18:48:00,65.1,36.1,29.35,North,0,0.0,0.0,34,0.00,,SKC,0.47,VWS V14.01,2013-06-14 22:48:00,
2013-06-14 18:53:00,65.1,36.1,29.35,West,265,0.0,0.0,34,0.00,,SKC,0.47,VWS V14.01,2013-06-14 22:53:00,
2013-06-14 18:58:00,65.1,36.1,29.35,West,271,4.0,4.0,34,0.00,,SKC,0.47,VWS V14.01,2013-06-14 22:58:00,
2013-06-14 19:03:00,65.1,36.1,29.35,North,0,4.0,4.0,34,0.00,,SKC,0.47,VWS V14.01,2013-06-14 23:03:00,
2013-06-14 19:08:00,65.1,36.1,29.35,North,353,0.0,0.0,34,0.00,,SKC,0.47,VWS V14.01,2013-06-14 23:08:00,
2013-06-14 19:13:00,65.1,36.1,29.38,SE,132,0.0,0.0,34,0.00,,SKC,0.47,VWS V14.01,2013-06-14 23:13:00,
2013-06-14 19:18:00,64.8,35.8,29.38,SSE,154,0.0,0.0,34,0.00,,SKC,0.47,VWS V14.01,2013-06-14 23:18:00,
2013-06-14 19:23:00,64.6,35.6,29.38,ENE,64,0.0,0.0,34,0.00,,SKC,0.47,VWS V14.01,2013-06-14 23:23:00,
2013-06-14 19:28:00,64.4,35.5,29.38,East,92,0.0,0.0,34,0.00,,SKC,0.47,VWS V14.01,2013-06-14 23:28:00,
2013-06-14 19:33:00,64.4,36.2,29.38,East,92,0.0,0.0,35,0.00,,SKC,0.47,VWS V14.01,2013-06-14 23:33:00,
2013-06-14 19:38:00,64.4,36.2,29.38,East,92,0.0,0.0,35,0.00,,SKC,0.47,VWS V14.01,2013-06-14 23:38:00,
2013-06-14 19:43:00,64.4,36.2,29.38,NE,50,0.0,4.0,35,0.00,,SKC,0.47,VWS V14.01,2013-06-14 23:43:00,
2013-06-14 19:48:00,64.4,36.2,29.38,NE,50,0.0,0.0,35,0.00,,SKC,0.47,VWS V14.01,2013-06-14 23:48:00,
2013-06-14 19:53:00,64.4,36.2,29.38,ENE,70,0.0,0.0,35,0.00,,SKC,0.47,VWS V14.01,2013-06-14 23:53:00,
2013-06-14 19:58:00,64.4,36.2,29.38,ESE,108,0.0,0.0,35,0.00,,SKC,0.47,VWS V14.01,2013-06-14 23:58:00,
2013-06-14 20:03:00,64.2,36.7,29.38,ESE,108,0.0,0.0,36,0.00,,SKC,0.47,VWS V14.01,2013-06-15 00:03:00,
2013-06-14 20:08:00,64.0,36.6,29.38,ESE,108,0.0,0.0,36,0.00,,SKC,0.47,VWS V14.01,2013-06-15 00:08:00,
2013-06-14 20:13:00,63.7,36.2,29.38,ESE,108,0.0,0.0,36,0.00,,SKC,0.47,VWS V14.01,2013-06-15 00:13:00,
2013-06-14 20:18:00,63.5,36.1,29.38,ESE,108,0.0,0.0,36,0.00,,SKC,0.47,VWS V14.01,2013-06-15 00:18:00,
2013-06-14 20:23:00,63.1,36.5,29.38,ESE,108,0.0,0.0,37,0.00,,SKC,0.47,VWS V14.01,2013-06-15 00:23:00,
2013-06-14 20:28:00,63.1,36.5,29.38,ESE,108,0.0,0.0,37,0.00,,SKC,0.47,VWS V14.01,2013-06-15 00:28:00,
2013-06-14 20:33:00,63.0,37.0,29.38,ESE,108,0.0,0.0,38,0.00,,SKC,0.47,VWS V14.01,2013-06-15 00:33:00,
2013-06-14 20:38:00,63.0,37.0,29.38,ESE,108,0.0,0.0,38,0.00,,SKC,0.47,VWS V14.01,2013-06-15 00:38:00,
2013-06-14 20:43:00,63.0,37.0,29.38,ESE,108,0.0,0.0,38,0.00,,SKC,0.47,VWS V14.01,2013-06-15 00:43:00,
2013-06-14 20:48:00,63.0,37.6,29.38,NE,42,0.0,0.0,39,0.00,,SKC,0.47,VWS V14.01,2013-06-15 00:48:00,
2013-06-14 20:53:00,63.0,37.6,29.38,ENE,76,0.0,0.0,39,0.00,,SKC,0.47,VWS V14.01,2013-06-15 00:53:00,
2013-06-14 20:58:00,63.0,37.6,29.38,ENE,76,0.0,0.0,39,0.00,,SKC,0.47,VWS V14.01,2013-06-15 00:58:00,
2013-06-14 21:03:00,63.0,37.6,29.38,ENE,76,0.0,0.0,39,0.00,,SKC,0.47,VWS V14.01,2013-06-15 01:03:00,
2013-06-14 21:08:00,63.0,37.6,29.38,ENE,76,0.0,0.0,39,0.00,,SKC,0.47,VWS V14.01,2013-06-15 01:08:00,
2013-06-14 21:13:00,63.0,38.3,29.38,East,84,0.0,2.7,40,0.00,,SKC,0.47,VWS V14.01,2013-06-15 01:13:00,
2013-06-14 21:18:00,63.0,37.6,29.38,NE,55,0.0,2.7,39,0.00,,SKC,0.47,VWS V14.01,2013-06-15 01:18:00,
2013-06-14 21:23:00,63.0,37.6,29.38,NE,50,0.0,0.0,39,0.00,,SKC,0.47,VWS V14.01,2013-06-15 01:23:00,
2013-06-14 21:28:00,63.1,37.8,29.41,NE,51,0.0,2.7,39,0.00,,SKC,0.47,VWS V14.01,2013-06-15 01:28:00,
2013-06-14 21:33:00,63.1,38.5,29.41,ENE,74,0.0,2.7,40,0.00,,SKC,0.47,VWS V14.01,2013-06-15 01:33:00,
2013-06-14 21:38:00,63.1,37.8,29.41,ENE,74,0.0,0.0,39,0.00,,SKC,0.47,VWS V14.01,2013-06-15 01:38:00,
2013-06-14 21:43:00,63.1,38.5,29.41,ESE,111,0.0,3.1,40,0.00,,SKC,0.47,VWS V14.01,2013-06-15 01:43:00,
2013-06-14 21:48:00,63.1,38.5,29.41,ESE,111,0.0,0.0,40,0.00,,SKC,0.47,VWS V14.01,2013-06-15 01:48:00,
2013-06-14 21:53:00,63.0,38.3,29.41,ESE,116,0.0,0.0,40,0.00,,SKC,0.47,VWS V14.01,2013-06-15 01:53:00,
2013-06-14 21:57:00,63.0,38.3,29.41,ESE,116,0.0,0.0,40,0.00,,SKC,0.47,VWS V14.01,2013-06-15 01:57:00,
2013-06-14 22:02:00,63.0,38.3,29.41,North,1,0.0,0.0,40,0.00,,SKC,0.47,VWS V14.01,2013-06-15 02:02:00,
2013-06-14 22:07:00,63.0,38.3,29.41,NNE,22,0.0,0.0,40,0.00,,SKC,0.47,VWS V14.01,2013-06-15 02:07:00,
2013-06-14 22:12:00,63.0,38.3,29.41,NNE,22,0.0,0.0,40,0.00,,SKC,0.47,VWS V14.01,2013-06-15 02:12:00,
2013-06-14 22:17:00,63.0,38.3,29.41,NNE,22,0.0,0.0,40,0.00,,SKC,0.47,VWS V14.01,2013-06-15 02:17:00,
2013-06-14 22:22:00,63.0,38.3,29.41,South,172,0.0,0.0,40,0.00,,SKC,0.47,VWS V14.01,2013-06-15 02:22:00,
2013-06-14 22:27:00,63.0,38.3,29.41,East,100,0.0,0.0,40,0.00,,SKC,0.47,VWS V14.01,2013-06-15 02:27:00,
2013-06-14 22:32:00,62.8,38.1,29.41,East,100,0.0,0.0,40,0.00,,SKC,0.47,VWS V14.01,2013-06-15 02:32:00,
2013-06-14 22:37:00,62.8,38.1,29.41,East,100,0.0,0.0,40,0.00,,SKC,0.47,VWS V14.01,2013-06-15 02:37:00,
2013-06-14 22:42:00,62.6,38.0,29.41,East,100,0.0,0.0,40,0.00,,SKC,0.47,VWS V14.01,2013-06-15 02:42:00,
2013-06-14 22:47:00,62.4,38.4,29.41,East,100,0.0,0.0,41,0.00,,SKC,0.47,VWS V14.01,2013-06-15 02:47:00,
2013-06-14 22:52:00,62.4,39.0,29.41,East,100,0.0,0.0,42,0.00,,SKC,0.47,VWS V14.01,2013-06-15 02:52:00,
2013-06-14 22:57:00,62.4,39.0,29.41,East,100,0.0,0.0,42,0.00,,SKC,0.47,VWS V14.01,2013-06-15 02:57:00,
2013-06-14 23:02:00,62.4,39.7,29.41,East,100,0.0,0.0,43,0.00,,SKC,0.47,VWS V14.01,2013-06-15 03:02:00,
2013-06-14 23:07:00,62.4,39.7,29.41,East,100,0.0,0.0,43,0.00,,SKC,0.47,VWS V14.01,2013-06-15 03:07:00,
2013-06-14 23:12:00,62.4,39.7,29.41,NNE,23,4.0,4.0,43,0.00,,SKC,0.47,VWS V14.01,2013-06-15 03:12:00,
2013-06-14 23:17:00,62.6,39.2,29.41,ESE,110,0.0,2.7,42,0.00,,SKC,0.47,VWS V14.01,2013-06-15 03:17:00,
2013-06-14 23:22:00,63.0,38.9,29.41,East,92,0.0,0.0,41,0.00,,SKC,0.47,VWS V14.01,2013-06-15 03:22:00,
2013-06-14 23:27:00,63.1,38.5,29.41,East,92,0.0,0.0,40,0.00,,SKC,0.47,VWS V14.01,2013-06-15 03:27:00,
2013-06-14 23:32:00,63.1,38.5,29.41,East,89,0.0,0.0,40,0.00,,SKC,0.47,VWS V14.01,2013-06-15 03:32:00,
2013-06-14 23:37:00,63.1,38.5,29.41,ESE,102,0.0,2.2,40,0.00,,SKC,0.47,VWS V14.01,2013-06-15 03:37:00,
2013-06-14 23:42:00,63.1,38.5,29.44,ESE,114,0.0,0.0,40,0.00,,SKC,0.47,VWS V14.01,2013-06-15 03:42:00,
2013-06-14 23:47:00,63.0,38.3,29.44,North,8,0.0,0.0,40,0.00,,SKC,0.47,VWS V14.01,2013-06-15 03:47:00,
2013-06-14 23:52:00,63.0,38.3,29.44,North,357,0.0,0.0,40,0.00,,SKC,0.47,VWS V14.01,2013-06-15 03:52:00,
2013-06-14 23:57:00,63.0,37.6,29.44,East,84,0.0,0.0,39,0.00,,SKC,0.47,VWS V14.01,2013-06-15 03:57:00,